Time;durP1;ratioP1;P1;durP2;ratioP2;P2;SDS_P1;SDS_P2;PMS_P1;PMS_P2;Temp;Humidity;BMP_temperature;BMP_pressure;BME280_temperature;BME280_humidity;BME280_pressure;Samples;Min_cycle;Max_cycle;Signal;HPM_P1;HPM_P2
2021/07/13 00:01:10;;;;;;;;;7.50;7.00;;;;;19.08;100.00;100853.06;5052593;28;45969;-69
2021/07/13 00:03:35;;;;;;;;;8.00;7.75;;;;;19.08;100.00;100842.47;5050711;28;45704;-67
2021/07/13 00:06:01;;;;;;;;;7.50;7.00;;;;;19.09;100.00;100848.63;5051100;28;45420;-68
2021/07/13 00:08:26;;;;;;;;;7.75;7.25;;;;;19.06;100.00;100846.13;5054362;28;45324;-67
2021/07/13 00:10:52;;;;;;;;;8.50;8.00;;;;;19.03;100.00;100848.94;5033738;28;46897;-67
2021/07/13 00:13:17;;;;;;;;;7.50;6.50;;;;;19.00;100.00;100846.41;5055777;28;45520;-68
2021/07/13 00:15:44;;;;;;;;;8.75;8.00;;;;;19.04;100.00;100858.59;5051209;28;45475;-69
2021/07/13 00:18:11;;;;;;;;;11.00;10.00;;;;;19.01;100.00;100842.81;5056183;28;45159;-68
2021/07/13 00:20:37;;;;;;;;;9.00;8.00;;;;;19.03;100.00;100849.78;5051416;28;46234;-68
2021/07/13 00:23:03;;;;;;;;;10.00;8.00;;;;;18.95;100.00;100828.09;5055716;28;45615;-69
2021/07/13 00:25:30;;;;;;;;;10.50;8.25;;;;;19.03;100.00;100839.19;5055304;28;45549;-69
2021/07/13 00:27:56;;;;;;;;;9.00;9.00;;;;;18.98;100.00;100839.41;5053420;28;45514;-68
2021/07/13 00:30:22;;;;;;;;;7.50;7.50;;;;;18.96;100.00;100843.91;5046171;28;45321;-68
2021/07/13 00:32:50;;;;;;;;;10.25;8.50;;;;;18.96;100.00;100845.69;5056240;28;45449;-68
2021/07/13 00:35:16;;;;;;;;;10.50;9.75;;;;;18.94;100.00;100843.13;5055207;28;45310;-69
2021/07/13 00:37:42;;;;;;;;;12.25;8.50;;;;;18.91;100.00;100834.47;5051557;28;45432;-69
2021/07/13 00:40:10;;;;;;;;;10.25;9.50;;;;;18.94;100.00;100840.47;5055531;28;46178;-69
2021/07/13 00:42:35;;;;;;;;;9.50;8.75;;;;;18.84;100.00;100817.19;5056531;28;45542;-69
2021/07/13 00:45:00;;;;;;;;;10.75;10.25;;;;;18.95;100.00;100825.47;5059703;28;45650;-70
2021/07/13 00:47:27;;;;;;;;;11.00;11.00;;;;;19.01;100.00;100833.13;5058386;28;45470;-69
2021/07/13 00:49:52;;;;;;;;;11.00;11.00;;;;;19.01;100.00;100830.47;5054381;28;47029;-69
2021/07/13 00:52:19;;;;;;;;;11.25;10.50;;;;;19.02;100.00;100820.75;5053964;28;45305;-69
2021/07/13 00:54:47;;;;;;;;;12.75;12.00;;;;;18.93;100.00;100796.44;5059545;28;45459;-67
2021/07/13 00:57:13;;;;;;;;;12.75;11.75;;;;;18.98;100.00;100810.28;5058962;28;45392;-68
2021/07/13 00:59:40;;;;;;;;;11.50;11.00;;;;;19.06;100.00;100817.88;5057638;28;46421;-68
2021/07/13 01:02:10;;;;;;;;;12.00;11.75;;;;;19.02;100.00;100803.09;5040324;28;46109;-68
2021/07/13 01:04:46;;;;;;;;;11.50;11.00;;;;;19.00;100.00;100801.41;5058588;28;45385;-67
2021/07/13 01:07:41;;;;;;;;;12.00;12.00;;;;;19.08;100.00;100818.66;5059062;28;45388;-68
2021/07/13 01:10:15;;;;;;;;;14.50;12.00;;;;;19.06;100.00;100820.53;5033756;28;48370;-68
2021/07/13 01:13:01;;;;;;;;;14.50;12.25;;;;;19.00;100.00;100815.50;5025125;28;45326;-68
2021/07/13 01:15:32;;;;;;;;;14.25;13.25;;;;;19.06;100.00;100803.78;5034355;28;45329;-68
2021/07/13 01:18:32;;;;;;;;;13.75;12.50;;;;;19.04;100.00;100793.28;5038520;28;45397;-67
2021/07/13 01:21:06;;;;;;;;;14.25;13.00;;;;;19.11;100.00;100793.81;5016433;28;45388;-68
2021/07/13 01:23:50;;;;;;;;;15.50;14.25;;;;;19.11;100.00;100797.34;5015412;28;45462;-68
2021/07/13 01:26:34;;;;;;;;;17.50;17.50;;;;;19.10;100.00;100806.22;5003373;28;45381;-68
2021/07/13 01:29:04;;;;;;;;;16.25;15.00;;;;;19.11;100.00;100807.91;5014625;28;45691;-69
2021/07/13 01:31:31;;;;;;;;;17.25;15.75;;;;;19.03;100.00;100788.91;4992230;28;48400;-72
2021/07/13 01:34:08;;;;;;;;;14.75;13.50;;;;;19.09;100.00;100790.41;5016048;28;45843;-68
2021/07/13 01:36:39;;;;;;;;;18.25;17.25;;;;;19.08;100.00;100778.97;5013128;28;45777;-68
2021/07/13 01:39:07;;;;;;;;;13.00;13.00;;;;;19.07;100.00;100779.03;5016693;28;45447;-68
2021/07/13 01:41:33;;;;;;;;;14.00;12.50;;;;;19.07;100.00;100785.19;5015427;28;45716;-69
2021/07/13 01:44:00;;;;;;;;;18.00;15.25;;;;;19.10;100.00;100792.13;5016420;28;45658;-68
2021/07/13 01:46:27;;;;;;;;;17.00;15.00;;;;;19.14;100.00;100799.81;5015953;28;45385;-67
2021/07/13 01:48:55;;;;;;;;;17.25;15.50;;;;;19.13;100.00;100802.56;5012988;28;45496;-67
2021/07/13 01:51:21;;;;;;;;;14.50;12.75;;;;;19.10;100.00;100800.91;5011584;28;45601;-66
2021/07/13 01:53:49;;;;;;;;;16.50;13.00;;;;;19.17;100.00;100818.19;4999224;28;45366;-64
2021/07/13 01:56:18;;;;;;;;;15.50;14.50;;;;;19.13;100.00;100811.34;5007342;28;46438;-67
2021/07/13 01:58:44;;;;;;;;;15.50;14.00;;;;;19.11;100.00;100809.72;5037062;28;45523;-67
2021/07/13 02:01:18;;;;;;;;;14.00;13.50;;;;;19.22;100.00;100818.81;5037743;28;46163;-67
2021/07/13 02:03:45;;;;;;;;;14.50;13.00;;;;;19.19;100.00;100802.25;5034909;28;45343;-67
2021/07/13 02:06:14;;;;;;;;;15.00;14.00;;;;;19.16;100.00;100787.38;5028120;28;45344;-67
2021/07/13 02:08:40;;;;;;;;;14.50;13.25;;;;;19.27;100.00;100800.94;5040074;28;45400;-68
2021/07/13 02:11:10;;;;;;;;;14.50;13.50;;;;;19.24;100.00;100794.97;5057951;28;45395;-68
2021/07/13 02:13:36;;;;;;;;;16.75;15.00;;;;;19.23;100.00;100802.00;5048603;28;45464;-68
2021/07/13 02:16:03;;;;;;;;;14.25;12.00;;;;;19.23;100.00;100799.38;5056710;28;45583;-68
2021/07/13 02:18:29;;;;;;;;;16.00;14.75;;;;;19.17;100.00;100801.47;5056709;28;45508;-67
2021/07/13 02:20:54;;;;;;;;;12.00;11.50;;;;;19.13;100.00;100814.00;5058219;28;46415;-67
2021/07/13 02:23:19;;;;;;;;;15.00;13.75;;;;;19.02;100.00;100795.16;5053147;28;45712;-67
2021/07/13 02:25:48;;;;;;;;;17.75;14.25;;;;;19.12;100.00;100812.28;5057727;28;46083;-68
2021/07/13 02:28:36;;;;;;;;;12.75;12.25;;;;;19.11;100.00;100809.72;5047718;28;45558;-67
2021/07/13 02:31:23;;;;;;;;;15.25;11.75;;;;;19.09;100.00;100793.91;5049646;28;45452;-68
2021/07/13 02:34:05;;;;;;;;;12.00;11.50;;;;;19.13;100.00;100790.16;5049277;28;45442;-67
2021/07/13 02:36:34;;;;;;;;;14.50;13.75;;;;;19.13;100.00;100789.31;5056178;28;45378;-69
2021/07/13 02:39:04;;;;;;;;;14.75;14.00;;;;;19.01;100.00;100780.19;5047371;28;45341;-68
2021/07/13 02:41:29;;;;;;;;;18.50;16.25;;;;;19.04;100.00;100808.31;5038143;28;46563;-68
2021/07/13 02:43:57;;;;;;;;;15.00;14.00;;;;;18.99;100.00;100811.16;5050316;28;45544;-68
2021/07/13 02:46:23;;;;;;;;;11.75;11.25;;;;;19.02;100.00;100811.03;5054475;28;45307;-67
2021/07/13 02:48:51;;;;;;;;;13.00;12.25;;;;;18.87;100.00;100786.16;5056195;28;45366;-67
2021/07/13 02:51:18;;;;;;;;;13.00;12.00;;;;;19.02;100.00;100808.38;5056848;28;47187;-68
2021/07/13 02:53:45;;;;;;;;;13.00;12.00;;;;;19.01;100.00;100809.31;5055973;28;45687;-68
2021/07/13 02:56:11;;;;;;;;;12.25;12.25;;;;;19.06;100.00;100814.38;5057576;28;45428;-68
2021/07/13 02:58:38;;;;;;;;;13.25;11.25;;;;;18.98;100.00;100812.94;5053588;28;45405;-68
2021/07/13 03:01:05;;;;;;;;;13.00;12.00;;;;;19.00;100.00;100809.34;5032077;28;46079;-68
2021/07/13 03:03:31;;;;;;;;;18.25;15.00;;;;;18.94;100.00;100814.00;5056671;28;45348;-68
2021/07/13 03:05:57;;;;;;;;;15.00;13.00;;;;;18.96;100.00;100817.44;5054479;28;45558;-68
2021/07/13 03:08:23;;;;;;;;;15.00;13.25;;;;;18.95;100.00;100814.88;5057168;28;45497;-68
2021/07/13 03:10:55;;;;;;;;;12.75;11.50;;;;;18.92;100.00;100805.28;5051465;28;45410;-68
2021/07/13 03:13:22;;;;;;;;;16.25;13.00;;;;;18.86;100.00;100795.00;5038113;28;45307;-68
2021/07/13 03:15:48;;;;;;;;;17.25;14.25;;;;;18.93;100.00;100812.31;5038009;28;45278;-68
2021/07/13 03:18:13;;;;;;;;;15.25;12.75;;;;;18.90;100.00;100817.75;5038234;28;45220;-68
2021/07/13 03:20:40;;;;;;;;;13.75;13.50;;;;;18.85;100.00;100813.59;5037374;28;46455;-67
2021/07/13 03:23:06;;;;;;;;;14.00;13.00;;;;;18.91;100.00;100827.41;5037607;28;45344;-68
2021/07/13 03:28:54;;;;;;;;;15.00;14.25;;;;;18.87;100.00;100804.66;5037768;28;45346;-68
2021/07/13 03:31:20;;;;;;;;;14.75;13.50;;;;;18.87;100.00;100802.03;5037148;28;47462;-69
2021/07/13 03:33:46;;;;;;;;;15.25;14.25;;;;;18.73;100.00;100783.28;5037286;28;45573;-68
2021/07/13 03:36:12;;;;;;;;;15.50;14.50;;;;;18.75;100.00;100784.06;5037447;28;45386;-68
2021/07/13 03:38:38;;;;;;;;;13.00;11.00;;;;;18.81;100.00;100790.88;5037947;28;45368;-67
2021/07/13 03:44:25;;;;;;;;;14.75;12.75;;;;;18.83;100.00;100791.66;5037256;28;45446;-68
2021/07/13 03:46:50;;;;;;;;;16.00;13.75;;;;;18.82;100.00;100782.88;5037569;28;45447;-68
2021/07/13 03:49:16;;;;;;;;;15.00;13.00;;;;;18.83;100.00;100784.59;5037491;28;45387;-68
2021/07/13 03:51:44;;;;;;;;;14.00;13.75;;;;;18.83;100.00;100789.88;5037332;28;45345;-68
2021/07/13 03:54:13;;;;;;;;;16.50;14.50;;;;;18.90;100.00;100801.00;5037158;28;45294;-68
2021/07/13 03:56:39;;;;;;;;;16.25;14.50;;;;;18.90;100.00;100795.72;5037107;28;45308;-68
2021/07/13 03:59:06;;;;;;;;;15.25;13.00;;;;;18.94;100.00;100795.50;5019389;28;45409;-68
2021/07/13 04:01:31;;;;;;;;;15.75;14.25;;;;;18.96;100.00;100806.00;5037151;28;45388;-68
2021/07/13 04:03:57;;;;;;;;;17.00;15.50;;;;;18.93;100.00;100803.50;5037348;28;45445;-68
2021/07/13 04:06:22;;;;;;;;;14.50;13.00;;;;;18.97;100.00;100802.44;5037120;28;45379;-68
2021/07/13 04:08:48;;;;;;;;;15.50;14.00;;;;;19.01;100.00;100805.78;5036994;28;45357;-67
2021/07/13 04:14:35;;;;;;;;;16.75;15.25;;;;;19.01;100.00;100795.19;5036840;28;45623;-68
2021/07/13 04:17:01;;;;;;;;;17.50;16.00;;;;;19.01;100.00;100803.13;5039056;28;45293;-71
2021/07/13 04:19:26;;;;;;;;;16.50;15.00;;;;;18.95;100.00;100799.84;5041025;28;45402;-68
2021/07/13 04:21:52;;;;;;;;;16.50;14.50;;;;;18.93;100.00;100791.13;5040283;28;46824;-68
2021/07/13 04:24:17;;;;;;;;;19.25;16.50;;;;;18.93;100.00;100796.44;5040175;28;45398;-68
2021/07/13 04:30:05;;;;;;;;;15.25;13.75;;;;;18.94;100.00;100800.78;5040472;28;45291;-68
2021/07/13 04:32:31;;;;;;;;;25.00;19.25;;;;;18.92;100.00;100801.78;5040042;28;47385;-71
2021/07/13 04:34:56;;;;;;;;;18.00;16.25;;;;;18.92;100.00;100805.28;5040353;28;45344;-69
2021/07/13 04:37:22;;;;;;;;;15.50;14.50;;;;;18.96;100.00;100798.06;5040367;28;45302;-69
2021/07/13 04:39:47;;;;;;;;;17.75;16.00;;;;;18.91;100.00;100789.50;5040525;28;45348;-68
2021/07/13 04:42:13;;;;;;;;;17.25;16.00;;;;;18.94;100.00;100807.88;5039914;28;46329;-71
2021/07/13 04:44:38;;;;;;;;;18.00;17.00;;;;;18.95;100.00;100812.22;5039925;28;45369;-68
2021/07/13 04:47:03;;;;;;;;;20.25;18.75;;;;;18.91;100.00;100802.72;5040424;28;45306;-69
2021/07/13 04:49:31;;;;;;;;;21.00;16.00;;;;;18.94;100.00;100808.72;5040163;28;45547;-68
2021/07/13 04:51:58;;;;;;;;;18.00;15.50;;;;;18.93;100.00;100804.38;5039876;28;47051;-68
2021/07/13 04:54:24;;;;;;;;;18.00;14.75;;;;;18.91;100.00;100798.28;5039675;28;45291;-68
2021/07/13 05:00:12;;;;;;;;;16.25;14.75;;;;;18.94;100.00;100794.63;5040017;28;45242;-68
2021/07/13 05:02:38;;;;;;;;;20.25;19.50;;;;;18.97;100.00;100798.00;5039696;28;45518;-69
2021/07/13 05:05:05;;;;;;;;;17.75;16.75;;;;;19.01;100.00;100801.38;5039742;28;45301;-69
2021/07/13 05:07:31;;;;;;;;;19.75;17.25;;;;;18.98;100.00;100793.56;5039566;28;45349;-71
2021/07/13 05:09:56;;;;;;;;;21.25;16.75;;;;;19.07;100.00;100809.00;5039406;28;45477;-70
2021/07/13 05:12:22;;;;;;;;;19.75;17.50;;;;;19.00;100.00;100802.28;5039198;28;47281;-70
2021/07/13 05:14:47;;;;;;;;;20.50;19.25;;;;;19.02;100.00;100804.88;5039717;28;45368;-70
2021/07/13 05:17:13;;;;;;;;;27.50;23.75;;;;;19.02;100.00;100804.88;5039559;28;45423;-71
2021/07/13 05:19:39;;;;;;;;;17.50;14.50;;;;;19.12;100.00;100822.00;5039663;28;45298;-71
2021/07/13 05:22:08;;;;;;;;;19.00;16.50;;;;;19.02;100.00;100800.44;5039516;28;45558;-72
2021/07/13 05:24:34;;;;;;;;;17.75;15.50;;;;;19.01;100.00;100793.44;5039212;28;45294;-73
2021/07/13 05:30:23;;;;;;;;;16.25;14.00;;;;;19.13;100.00;100821.94;5039343;28;45208;-71
2021/07/13 05:32:50;;;;;;;;;17.75;17.50;;;;;19.16;100.00;100828.88;5039420;28;46091;-70
2021/07/13 05:35:16;;;;;;;;;21.75;17.50;;;;;19.13;100.00;100829.88;5039028;28;45310;-70
2021/07/13 05:37:41;;;;;;;;;17.00;16.25;;;;;19.13;100.00;100814.00;5039111;28;45266;-70
2021/07/13 05:40:08;;;;;;;;;17.75;15.00;;;;;19.16;100.00;100827.06;5039668;28;45303;-68
2021/07/13 05:42:33;;;;;;;;;16.75;15.50;;;;;19.20;100.00;100828.63;5039104;28;45484;-72
2021/07/13 05:45:00;;;;;;;;;17.75;16.50;;;;;19.25;100.00;100844.31;5039235;28;45378;-70
2021/07/13 05:47:25;;;;;;;;;21.00;16.25;;;;;19.28;100.00;100842.38;5039317;28;45336;-70
2021/07/13 05:49:51;;;;;;;;;19.25;17.50;;;;;19.28;100.00;100833.59;5039197;28;45378;-70
2021/07/13 05:52:16;;;;;;;;;19.50;18.00;;;;;19.37;100.00;100846.34;5038382;28;46406;-69
2021/07/13 05:54:42;;;;;;;;;22.25;19.75;;;;;19.40;100.00;100845.34;5038794;28;45417;-70
2021/07/13 06:00:29;;;;;;;;;17.75;16.50;;;;;19.46;100.00;100850.31;5039105;28;45418;-69
2021/07/13 06:02:54;;;;;;;;;20.00;18.50;;;;;19.46;100.00;100837.97;5038591;28;45660;-70
2021/07/13 06:05:19;;;;;;;;;19.25;18.50;;;;;19.47;100.00;100833.53;5038696;28;45334;-70
2021/07/13 06:07:47;;;;;;;;;18.50;18.00;;;;;19.51;100.00;100843.03;5038444;28;45398;-69
2021/07/13 06:10:13;;;;;;;;;21.75;19.00;;;;;19.54;100.00;100850.84;5039208;28;45413;-69
2021/07/13 06:12:39;;;;;;;;;19.50;17.00;;;;;19.37;100.00;100811.06;5038387;28;47381;-70
2021/07/13 06:15:06;;;;;;;;;21.25;20.25;;;;;19.57;100.00;100834.81;5038461;28;45444;-70
2021/07/13 06:17:31;;;;;;;;;20.00;16.25;;;;;19.60;100.00;100836.44;5038844;28;45407;-70
2021/07/13 06:19:57;;;;;;;;;21.00;19.75;;;;;19.61;100.00;100835.50;5038743;28;45335;-70
2021/07/13 06:22:22;;;;;;;;;22.00;18.00;;;;;19.60;100.00;100831.16;5038538;28;46155;-69
2021/07/13 06:24:49;;;;;;;;;21.75;18.75;;;;;19.62;100.00;100827.47;5038755;28;45319;-70
2021/07/13 06:30:35;;;;;;;;;19.50;17.50;;;;;19.76;100.00;100835.59;5038404;28;45347;-70
2021/07/13 06:33:01;;;;;;;;;22.25;18.00;;;;;19.71;100.00;100824.41;5037956;28;46138;-71
2021/07/13 06:35:27;;;;;;;;;24.25;20.00;;;;;19.80;100.00;100833.66;5038408;28;45334;-70
2021/07/13 06:37:52;;;;;;;;;22.50;19.75;;;;;19.86;100.00;100842.13;5038440;28;45294;-70
2021/07/13 06:40:18;;;;;;;;;22.00;20.00;;;;;19.87;100.00;100838.53;5037619;28;45284;-70
2021/07/13 06:42:44;;;;;;;;;22.75;20.00;;;;;19.97;100.00;100838.09;5037967;28;47116;-71
2021/07/13 06:45:12;;;;;;;;;26.00;22.75;;;;;20.08;100.00;100848.97;5038203;28;45437;-70
2021/07/13 06:47:37;;;;;;;;;26.25;23.50;;;;;20.12;100.00;100837.28;5020202;28;45377;-70
2021/07/13 06:50:04;;;;;;;;;20.25;17.75;;;;;20.09;100.00;100821.53;5038295;28;45200;-70
2021/07/13 06:52:30;;;;;;;;;18.75;18.00;;;;;20.13;100.00;100818.63;5037855;28;46402;-70
2021/07/13 06:54:55;;;;;;;;;21.75;18.50;;;;;20.21;100.00;100823.56;5037786;28;45362;-70
2021/07/13 07:00:42;;;;;;;;;23.25;21.50;;;;;20.26;100.00;100818.88;5038129;28;45464;-69
2021/07/13 07:03:08;;;;;;;;;20.00;18.50;;;;;20.31;100.00;100823.91;5037939;28;46446;-70
2021/07/13 07:05:35;;;;;;;;;22.75;21.00;;;;;20.34;100.00;100821.94;5038000;28;45446;-69
2021/07/13 07:08:01;;;;;;;;;25.50;20.75;;;;;20.35;100.00;100828.97;5038023;28;45350;-69
2021/07/13 07:10:26;;;;;;;;;21.50;21.00;;;;;20.32;100.00;100828.28;5038230;28;45371;-69
2021/07/13 07:12:52;;;;;;;;;22.75;21.25;;;;;20.29;100.00;100813.38;5037912;28;45319;-70
2021/07/13 07:15:18;;;;;;;;;24.00;21.00;;;;;20.41;100.00;100823.38;5037789;28;45330;-70
2021/07/13 07:17:49;;;;;;;;;27.50;22.50;;;;;20.42;100.00;100825.09;5037814;28;45358;-69
2021/07/13 07:20:17;;;;;;;;;26.00;21.25;;;;;20.42;100.00;100814.50;5037719;28;45365;-71
2021/07/13 07:22:42;;;;;;;;;23.50;20.75;;;;;20.40;100.00;100813.72;5037787;28;46556;-70
2021/07/13 07:25:09;;;;;;;;;23.75;19.00;;;;;20.43;100.00;100816.19;5037685;28;45349;-70
2021/07/13 07:30:56;;;;;;;;;23.75;20.75;;;;;20.39;100.00;100793.41;5037587;28;45364;-71
2021/07/13 07:33:21;;;;;;;;;21.25;20.75;;;;;20.49;100.00;100804.41;5037390;28;46429;-70
2021/07/13 07:35:46;;;;;;;;;20.00;19.50;;;;;20.41;100.00;100778.31;5037609;28;45329;-71
2021/07/13 07:38:12;;;;;;;;;26.50;23.75;;;;;20.55;100.00;100793.44;5037684;28;45368;-70
2021/07/13 07:40:39;;;;;;;;;23.25;22.75;;;;;20.66;100.00;100806.13;5037350;28;45392;-70
2021/07/13 07:43:04;;;;;;;;;23.25;21.75;;;;;20.63;100.00;100798.34;5037437;28;46173;-71
2021/07/13 07:45:31;;;;;;;;;24.25;21.00;;;;;20.75;100.00;100814.44;5037359;28;45294;-71
2021/07/13 07:47:57;;;;;;;;;23.25;21.00;;;;;20.82;100.00;100828.25;5037191;28;45304;-70
2021/07/13 07:50:24;;;;;;;;;22.00;19.00;;;;;20.86;100.00;100831.56;5037404;28;45261;-70
2021/07/13 07:52:50;;;;;;;;;22.50;21.00;;;;;20.84;100.00;100836.97;5036979;28;46435;-70
2021/07/13 07:55:19;;;;;;;;;22.25;19.50;;;;;20.80;100.00;100828.28;5037263;28;45364;-70
2021/07/13 08:01:06;;;;;;;;;28.75;24.25;;;;;20.55;100.00;100829.72;5037200;28;45338;-70
2021/07/13 08:03:31;;;;;;;;;23.00;20.00;;;;;20.63;100.00;100846.97;5037097;28;46564;-70
2021/07/13 08:05:57;;;;;;;;;23.25;19.50;;;;;20.63;100.00;100843.44;5036867;28;45367;-70
2021/07/13 08:08:23;;;;;;;;;20.25;17.25;;;;;20.58;100.00;100834.84;5037108;28;45385;-70
2021/07/13 08:10:48;;;;;;;;;20.50;17.50;;;;;20.60;100.00;100839.16;5037037;28;45390;-70
2021/07/13 08:13:14;;;;;;;;;22.75;19.25;;;;;20.74;100.00;100843.72;5037101;28;45445;-70
2021/07/13 08:15:39;;;;;;;;;21.50;20.50;;;;;20.79;100.00;100839.00;5037046;28;45370;-70
2021/07/13 08:18:05;;;;;;;;;23.50;19.50;;;;;20.88;100.00;100848.28;5036986;28;45609;-70
2021/07/13 08:20:30;;;;;;;;;22.50;18.75;;;;;20.90;100.00;100841.06;5037408;28;45296;-70
2021/07/13 08:22:55;;;;;;;;;20.75;18.50;;;;;20.93;100.00;100833.78;5036958;28;45246;-69
2021/07/13 08:25:21;;;;;;;;;19.75;18.00;;;;;20.98;100.00;100845.00;5036945;28;45372;-69
2021/07/13 08:31:08;;;;;;;;;17.75;16.75;;;;;21.08;100.00;100856.84;5036856;28;45425;-69
2021/07/13 08:33:33;;;;;;;;;23.00;19.00;;;;;21.10;100.00;100854.09;5036771;28;45690;-70
2021/07/13 08:35:59;;;;;;;;;19.25;16.50;;;;;21.18;100.00;100853.66;5036691;28;45445;-69
2021/07/13 08:38:25;;;;;;;;;17.25;16.50;;;;;21.16;100.00;100843.13;5036856;28;45231;-70
2021/07/13 08:40:50;;;;;;;;;18.50;15.00;;;;;21.21;100.00;100840.19;5037014;28;45215;-69
2021/07/13 08:43:16;;;;;;;;;18.50;16.00;;;;;21.20;100.00;100838.50;5036237;28;45979;-69
2021/07/13 08:45:43;;;;;;;;;18.25;16.75;;;;;21.28;100.00;100844.28;5018632;28;45463;-69
2021/07/13 08:48:12;;;;;;;;;23.25;18.00;;;;;21.33;100.00;100853.69;5036835;28;45271;-69
2021/07/13 08:50:38;;;;;;;;;17.75;16.75;;;;;21.30;100.00;100837.06;5036505;28;45417;-69
2021/07/13 08:53:04;;;;;;;;;17.00;16.00;;;;;21.28;100.00;100828.34;5036554;28;45426;-70
2021/07/13 08:55:29;;;;;;;;;16.25;16.00;;;;;21.42;100.00;100843.47;5036147;28;45361;-69
2021/07/13 09:01:16;;;;;;;;;16.75;14.75;;;;;21.70;100.00;100846.22;5036491;28;45402;-69
2021/07/13 09:04:01;;;;;;;;;18.25;15.75;;;;;21.78;100.00;100853.75;5039000;28;46389;-70
2021/07/13 09:06:29;;;;;;;;;22.25;18.25;;;;;21.82;100.00;100850.81;5039833;28;45391;-71
2021/07/13 09:08:55;;;;;;;;;17.00;16.25;;;;;21.87;100.00;100855.84;5039660;28;45521;-70
2021/07/13 09:11:23;;;;;;;;;15.50;14.00;;;;;21.88;100.00;100846.94;5021803;28;45540;-70
2021/07/13 09:13:50;;;;;;;;;17.25;13.25;;;;;21.99;100.00;100856.00;5039567;28;46682;-70
2021/07/13 09:16:20;;;;;;;;;18.25;16.75;;;;;22.01;100.00;100863.88;5039338;28;45351;-70
2021/07/13 09:18:51;;;;;;;;;15.00;14.00;;;;;21.96;100.00;100860.66;5039417;28;45312;-70
2021/07/13 09:21:20;;;;;;;;;16.75;15.25;;;;;21.89;100.00;100867.25;5039640;28;45334;-70
2021/07/13 09:24:01;;;;;;;;;20.00;16.00;;;;;21.82;100.00;100866.78;5039510;28;45624;-70
2021/07/13 09:26:42;;;;;;;;;15.25;15.25;;;;;21.75;100.00;100873.41;5039543;28;45594;-71
2021/07/13 09:29:26;;;;;;;;;25.00;16.75;;;;;21.65;100.00;100880.19;5039186;28;45336;-70
2021/07/13 09:31:52;;;;;;;;;17.50;14.00;;;;;21.51;100.00;100870.38;5039665;28;45383;-71
2021/07/13 09:34:18;;;;;;;;;15.50;15.50;;;;;21.46;100.00;100876.88;5039383;28;46689;-71
2021/07/13 09:36:54;;;;;;;;;16.50;16.00;;;;;21.35;100.00;100869.53;5039204;28;45573;-71
2021/07/13 09:39:24;;;;;;;;;17.00;14.50;;;;;21.28;100.00;100879.66;5039494;28;45227;-70
2021/07/13 09:41:54;;;;;;;;;20.25;16.25;;;;;21.31;100.00;100891.91;5039124;28;45504;-70
2021/07/13 09:44:24;;;;;;;;;20.25;18.50;;;;;21.30;100.00;100891.03;5038971;28;46057;-70
2021/07/13 09:46:51;;;;;;;;;16.25;15.25;;;;;21.28;100.00;100881.47;5038929;28;45676;-69
2021/07/13 09:49:20;;;;;;;;;16.00;15.00;;;;;21.37;100.00;100883.56;5039077;28;45322;-68
2021/07/13 09:52:02;;;;;;;;;17.50;16.00;;;;;21.45;100.00;100888.44;5039000;28;45459;-70
2021/07/13 09:54:40;;;;;;;;;18.25;16.25;;;;;21.56;100.00;100884.25;5038928;28;46406;-70
2021/07/13 09:57:16;;;;;;;;;20.25;16.00;;;;;21.72;100.00;100889.50;5038739;28;45368;-69
2021/07/13 10:00:00;;;;;;;;;17.75;15.00;;;;;21.84;100.00;100894.13;5038808;28;45385;-70
2021/07/13 10:02:26;;;;;;;;;17.25;15.75;;;;;21.90;100.00;100890.22;5039245;28;45361;-70
2021/07/13 10:04:53;;;;;;;;;19.25;15.75;;;;;21.93;100.00;100890.03;5020686;28;48543;-70
2021/07/13 10:07:20;;;;;;;;;17.50;14.75;;;;;21.93;100.00;100900.69;5038803;28;45650;-70
2021/07/13 10:09:53;;;;;;;;;17.00;14.00;;;;;21.91;100.00;100899.91;5038608;28;45309;-71
2021/07/13 10:12:24;;;;;;;;;19.00;16.50;;;;;21.90;100.00;100893.75;5039092;28;45398;-70
2021/07/13 10:14:56;;;;;;;;;17.25;16.50;;;;;21.95;100.00;100885.50;5038748;28;46382;-71
2021/07/13 10:17:24;;;;;;;;;16.75;15.75;;;;;22.16;100.00;100900.22;5038709;28;45283;-71
2021/07/13 10:20:11;;;;;;;;;20.25;17.75;;;;;22.29;100.00;100895.88;5039007;28;45350;-71
2021/07/13 10:22:42;;;;;;;;;19.00;17.50;;;;;22.34;100.00;100897.38;5038960;28;45371;-71
2021/07/13 10:25:08;;;;;;;;;16.00;15.00;;;;;22.33;100.00;100899.19;5020312;28;46376;-70
2021/07/13 10:27:36;;;;;;;;;18.50;14.50;;;;;22.20;100.00;100891.13;5038541;28;45290;-72
2021/07/13 10:30:07;;;;;;;;;15.50;14.00;;;;;22.21;100.00;100903.47;5038590;28;45397;-74
2021/07/13 10:32:39;;;;;;;;;15.25;14.00;;;;;22.10;100.00;100905.03;5038786;28;45353;-72
2021/07/13 10:35:27;;;;;;;;;19.75;17.00;;;;;22.08;100.00;100901.63;5038127;28;47228;-71
2021/07/13 10:37:57;;;;;;;;;17.25;14.00;;;;;22.02;100.00;100903.66;5038384;28;46183;-71
2021/07/13 10:40:25;;;;;;;;;22.75;19.75;;;;;21.98;100.00;100909.28;5038329;28;45373;-70
2021/07/13 10:43:18;;;;;;;;;17.75;17.75;;;;;21.93;100.00;100890.03;5038411;28;45505;-71
2021/07/13 10:45:46;;;;;;;;;18.50;17.00;;;;;21.98;100.00;100902.16;5035460;28;45629;-72
2021/07/13 10:48:21;;;;;;;;;17.50;16.50;;;;;21.99;100.00;100908.31;5038075;28;45298;-71
2021/07/13 10:50:53;;;;;;;;;21.50;17.00;;;;;21.94;100.00;100921.00;5038493;28;45263;-71
2021/07/13 10:53:19;;;;;;;;;20.50;17.50;;;;;21.87;100.00;100917.84;5038288;28;45373;-71
2021/07/13 10:55:47;;;;;;;;;19.00;18.00;;;;;21.83;100.00;100904.84;5037760;28;46467;-70
2021/07/13 10:58:15;;;;;;;;;25.25;19.75;;;;;21.79;100.00;100898.84;5036902;28;45877;-71
2021/07/13 11:00:50;;;;;;;;;19.75;17.75;;;;;21.79;100.00;100896.19;5038120;28;45313;-72
2021/07/13 11:03:34;;;;;;;;;31.00;27.50;;;;;21.82;100.00;100895.16;5038384;28;45382;-72
2021/07/13 11:06:07;;;;;;;;;21.00;19.25;;;;;21.87;100.00;100885.97;5037845;28;45680;-71
2021/07/13 11:08:38;;;;;;;;;19.75;16.25;;;;;21.93;100.00;100890.03;5037253;28;45558;-70
2021/07/13 11:11:07;;;;;;;;;21.00;18.25;;;;;21.91;100.00;100886.63;5037364;28;45410;-70
2021/07/13 11:13:33;;;;;;;;;52.25;40.50;;;;;22.03;100.00;100901.88;5037711;28;45408;-72
2021/07/13 11:15:59;;;;;;;;;25.50;22.50;;;;;22.08;100.00;100894.50;5037503;28;45589;-71
2021/07/13 11:18:29;;;;;;;;;19.50;18.00;;;;;22.24;100.00;100902.44;5037526;28;45322;-72
2021/07/13 11:20:54;;;;;;;;;23.75;19.25;;;;;22.33;100.00;100896.53;5037203;28;45415;-71
2021/07/13 11:23:29;;;;;;;;;22.00;20.50;;;;;22.35;100.00;100893.78;5037847;28;45361;-71
2021/07/13 11:26:08;;;;;;;;;21.25;19.25;;;;;22.24;100.00;100886.47;5036516;28;46172;-71
2021/07/13 11:28:34;;;;;;;;;21.25;18.00;;;;;22.16;100.00;100900.22;5037345;28;45325;-71
2021/07/13 11:31:00;;;;;;;;;23.00;19.00;;;;;22.01;100.00;100893.13;5036871;28;45508;-72
2021/07/13 11:33:27;;;;;;;;;22.75;21.00;;;;;21.93;100.00;100913.97;5037235;28;45474;-70
2021/07/13 11:35:56;;;;;;;;;18.75;17.50;;;;;21.81;100.00;100906.75;5018641;28;47400;-71
2021/07/13 11:38:29;;;;;;;;;21.50;20.25;;;;;21.77;100.00;100922.00;5037226;28;45550;-70
2021/07/13 11:41:12;;;;;;;;;27.75;24.50;;;;;21.71;100.00;100923.19;5036792;28;45466;-73
2021/07/13 11:43:38;;;;;;;;;25.75;23.00;;;;;21.75;100.00;100920.38;5037319;28;45430;-70
2021/07/13 11:46:11;;;;;;;;;26.00;22.75;;;;;21.77;100.00;100922.00;5036863;28;46714;-71
2021/07/13 11:48:40;;;;;;;;;25.00;24.00;;;;;21.80;100.00;100919.16;5036903;28;45585;-71
2021/07/13 11:51:09;;;;;;;;;24.75;22.25;;;;;21.83;100.00;100916.34;5036729;28;45231;-69